German Valley, Illinois
Current Conditions -  °F | °C
As of 11:55 AM on Thursday 23 Oct 2014 (Local Time) from KFEP Reporting Station
Broken Clouds Broken Clouds  
Wind Chill: 56°   Ceiling: 11000
Heat Index: 56°   Visibility: 10mi
Dew Point: 42°   Wind: 14mph
Humidity: 59%   Direction: 180°S
Pressure: 30.14"   Gusts: 20mph
Location:  42.22°N, 89.47°W
Report Text: KFEP 231655Z AUTO 18012G17KT 10SM SCT050 BKN110 14/06 A3014 RMK AO2 T01350057
Loading
Personal Weather Stations






























Interactive Weather Map
Tropical Storm Tracking
New forecast layout! Learn more

10-Day Weather Forecast

Advertisements
Track Severe Weather on mobile